createdAt,value
2018-04-08T00:01:58.450Z,100179.31
2018-04-08T00:04:24.806Z,100174.22
2018-04-08T00:06:51.205Z,100170.39
2018-04-08T00:09:17.597Z,100174.19
2018-04-08T00:11:43.979Z,100168.45
2018-04-08T00:14:10.439Z,100171.63
2018-04-08T00:16:36.846Z,100170.41
2018-04-08T00:19:03.189Z,100169.52
2018-04-08T00:21:29.689Z,100167.45
2018-04-08T00:23:56.097Z,100160.86
2018-04-08T00:26:22.577Z,100157.59
2018-04-08T00:28:48.973Z,100149.12
2018-04-08T00:31:15.322Z,100139.54
2018-04-08T00:33:41.729Z,100143.02
2018-04-08T00:36:08.106Z,100140.34
2018-04-08T00:38:34.438Z,100125.91
2018-04-08T00:41:00.858Z,100125.76
2018-04-08T00:43:27.228Z,100121.70
2018-04-08T00:45:53.638Z,100124.27
2018-04-08T00:48:20.030Z,100124.71
2018-04-08T00:50:46.403Z,100123.25
2018-04-08T00:53:12.833Z,100121.73
2018-04-08T00:55:39.249Z,100119.24
2018-04-08T00:58:05.473Z,100116.77
2018-04-08T01:00:31.725Z,100117.56
2018-04-08T01:02:58.035Z,100122.53
2018-04-08T01:05:24.334Z,100126.49
2018-04-08T01:07:51.710Z,100120.94
2018-04-08T01:10:17.993Z,100123.11
2018-04-08T01:12:44.209Z,100118.47
2018-04-08T01:15:10.425Z,100120.34
2018-04-08T01:17:36.766Z,100116.72
2018-04-08T01:20:03.250Z,100106.94
2018-04-08T01:22:29.597Z,100103.83
2018-04-08T01:24:56.059Z,100111.80
2018-04-08T01:27:22.471Z,100103.70
2018-04-08T01:29:48.824Z,100102.72
2018-04-08T01:32:15.225Z,100097.84
2018-04-08T01:34:41.581Z,100093.98
2018-04-08T01:37:08.030Z,100100.20
2018-04-08T01:39:34.454Z,100091.98
2018-04-08T01:42:00.931Z,100099.94
2018-04-08T01:44:27.321Z,100098.48
2018-04-08T01:46:53.719Z,100104.03
2018-04-08T01:49:20.235Z,100106.23
2018-04-08T01:51:46.577Z,100097.30
2018-04-08T01:54:12.926Z,100097.13
2018-04-08T01:56:39.364Z,100099.19
2018-04-08T01:59:05.746Z,100096.58
2018-04-08T02:01:32.131Z,100091.87
2018-04-08T02:03:58.665Z,100089.98
2018-04-08T02:06:25.030Z,100088.03
2018-04-08T02:08:51.373Z,100082.37
2018-04-08T02:11:17.861Z,100081.39
2018-04-08T02:13:44.249Z,100074.89
2018-04-08T02:16:10.578Z,100079.98
2018-04-08T02:18:36.942Z,100075.77
2018-04-08T02:21:03.286Z,100081.05
2018-04-08T02:23:29.793Z,100083.71
2018-04-08T02:25:56.133Z,100088.94
2018-04-08T02:28:22.485Z,100092.56
2018-04-08T02:30:48.873Z,100095.41
2018-04-08T02:33:15.234Z,100100.23
2018-04-08T02:35:41.625Z,100103.99
2018-04-08T02:38:08.019Z,100110.26
2018-04-08T02:40:34.370Z,100114.34
2018-04-08T02:43:00.902Z,100114.61
2018-04-08T02:45:27.246Z,100127.59
2018-04-08T02:47:53.609Z,100135.41
2018-04-08T02:50:20.024Z,100130.25
2018-04-08T02:52:46.434Z,100125.98
2018-04-08T02:55:12.825Z,100122.25
2018-04-08T02:57:39.319Z,100127.30
2018-04-08T03:00:05.752Z,100127.27
2018-04-08T03:02:32.146Z,100131.04
2018-04-08T03:04:58.598Z,100125.59
2018-04-08T03:07:24.989Z,100120.53
2018-04-08T03:09:51.355Z,100113.06
2018-04-08T03:12:17.838Z,100113.25
2018-04-08T03:14:44.285Z,100115.64
2018-04-08T03:17:10.661Z,100116.20
2018-04-08T03:19:37.154Z,100123.05
2018-04-08T03:22:03.837Z,100129.39
2018-04-08T03:24:30.217Z,100127.77
2018-04-08T03:26:56.640Z,100127.47
2018-04-08T03:29:23.009Z,100129.92
2018-04-08T03:31:49.434Z,100129.45
2018-04-08T03:34:15.810Z,100129.26
2018-04-08T03:36:42.277Z,100116.06
2018-04-08T03:39:08.669Z,100129.55
2018-04-08T03:41:35.118Z,100129.48
2018-04-08T03:44:01.498Z,100131.87
2018-04-08T03:46:27.886Z,100139.77
2018-04-08T03:48:54.301Z,100134.91
2018-04-08T03:51:20.677Z,100135.73
2018-04-08T03:53:47.134Z,100143.86
2018-04-08T03:56:13.601Z,100148.59
2018-04-08T03:58:42.001Z,100144.86
2018-04-08T04:01:08.455Z,100154.16
2018-04-08T04:03:34.926Z,100156.90
2018-04-08T04:06:01.342Z,100158.06
2018-04-08T04:08:27.734Z,100156.90
2018-04-08T04:10:54.194Z,100160.14
2018-04-08T04:13:20.638Z,100164.77
2018-04-08T04:15:47.061Z,100164.20
2018-04-08T04:18:25.750Z,100170.89
2018-04-08T04:21:04.330Z,100177.47
2018-04-08T04:23:42.920Z,100184.21
2018-04-08T04:26:21.406Z,100188.39
2018-04-08T04:28:47.822Z,100197.17
2018-04-08T04:31:14.293Z,100210.93
2018-04-08T04:33:40.695Z,100203.17
2018-04-08T04:36:07.074Z,100198.22
2018-04-08T04:38:33.457Z,100196.42
2018-04-08T04:40:59.838Z,100202.81
2018-04-08T04:43:26.273Z,100210.53
2018-04-08T04:45:52.709Z,100221.13
2018-04-08T04:48:19.081Z,100221.16
2018-04-08T04:50:45.452Z,100215.69
2018-04-08T04:53:11.869Z,100213.52
2018-04-08T04:55:38.321Z,100209.50
2018-04-08T04:58:04.781Z,100212.45
2018-04-08T05:00:31.222Z,100215.16
2018-04-08T05:02:57.657Z,100217.66
2018-04-08T05:05:24.033Z,100223.66
2018-04-08T05:07:50.411Z,100220.22
2018-04-08T05:10:16.833Z,100213.33
2018-04-08T05:12:43.269Z,100228.59
2018-04-08T05:15:09.695Z,100221.23
2018-04-08T05:17:36.097Z,100227.55
2018-04-08T05:20:02.493Z,100234.23
2018-04-08T05:22:28.926Z,100235.97
2018-04-08T05:24:55.318Z,100233.05
2018-04-08T05:27:21.749Z,100226.53
2018-04-08T05:29:48.138Z,100223.12
2018-04-08T05:32:14.554Z,100228.98
2018-04-08T05:34:40.986Z,100232.95
2018-04-08T05:37:07.365Z,100233.27
2018-04-08T05:39:33.753Z,100232.16
2018-04-08T05:42:00.102Z,100242.50
2018-04-08T05:44:26.543Z,100234.40
2018-04-08T05:46:53.948Z,100230.39
2018-04-08T05:49:21.338Z,100236.70
2018-04-08T05:51:48.061Z,100230.87
2018-04-08T05:54:14.455Z,100220.25
2018-04-08T05:56:40.981Z,100216.98
2018-04-08T05:59:07.410Z,100218.39
2018-04-08T06:01:33.839Z,100222.95
2018-04-08T06:04:00.197Z,100213.87
2018-04-08T06:06:26.563Z,100219.97
2018-04-08T06:08:52.924Z,100226.98
2018-04-08T06:11:19.274Z,100224.45
2018-04-08T06:13:45.662Z,100227.58
2018-04-08T06:16:12.067Z,100225.36
2018-04-08T06:18:38.502Z,100227.97
2018-04-08T06:21:04.885Z,100229.42
2018-04-08T06:23:31.288Z,100224.64
2018-04-08T06:25:57.726Z,100214.42
2018-04-08T06:28:24.206Z,100219.72
2018-04-08T06:30:50.614Z,100231.73
2018-04-08T06:33:16.981Z,100227.17
2018-04-08T06:35:43.734Z,100226.33
2018-04-08T06:38:10.369Z,100227.84
2018-04-08T06:40:36.762Z,100230.97
2018-04-08T06:43:03.225Z,100230.70
2018-04-08T06:45:29.649Z,100226.98
2018-04-08T06:47:56.064Z,100228.30
2018-04-08T06:50:22.450Z,100231.77
2018-04-08T06:52:48.822Z,100234.52
2018-04-08T06:55:15.173Z,100237.40
2018-04-08T06:57:41.545Z,100233.84
2018-04-08T07:00:08.148Z,100236.16
2018-04-08T07:02:34.555Z,100231.98
2018-04-08T07:05:00.986Z,100230.41
2018-04-08T07:07:27.329Z,100229.84
2018-04-08T07:09:53.726Z,100235.48
2018-04-08T07:12:20.143Z,100232.56
2018-04-08T07:14:46.558Z,100235.67
2018-04-08T07:17:12.914Z,100238.84
2018-04-08T07:19:39.282Z,100239.67
2018-04-08T07:22:05.695Z,100248.89
2018-04-08T07:24:32.117Z,100231.78
2018-04-08T07:26:58.458Z,100240.37
2018-04-08T07:29:24.862Z,100240.81
2018-04-08T07:31:51.425Z,100232.66
2018-04-08T07:34:17.800Z,100224.39
2018-04-08T07:36:44.210Z,100227.78
2018-04-08T07:39:10.569Z,100224.14
2018-04-08T07:41:36.973Z,100231.05
2018-04-08T07:44:03.353Z,100237.23
2018-04-08T07:46:29.697Z,100233.98
2018-04-08T07:48:56.094Z,100238.41
2018-04-08T07:51:22.445Z,100232.40
2018-04-08T07:53:49.141Z,100238.95
2018-04-08T07:56:15.509Z,100242.34
2018-04-08T07:58:42.097Z,100238.41
2018-04-08T08:01:08.509Z,100228.39
2018-04-08T08:03:34.918Z,100237.25
2018-04-08T08:06:01.989Z,100235.32
2018-04-08T08:08:28.389Z,100228.14
2018-04-08T08:10:54.795Z,100231.97
2018-04-08T08:13:21.157Z,100232.12
2018-04-08T08:15:47.554Z,100229.73
2018-04-08T08:18:13.960Z,100230.10
2018-04-08T08:20:40.501Z,100232.67
2018-04-08T08:23:06.914Z,100234.14
2018-04-08T08:25:33.342Z,100239.20
2018-04-08T08:27:59.721Z,100231.60
2018-04-08T08:30:26.088Z,100237.28
2018-04-08T08:32:52.469Z,100237.28
2018-04-08T08:35:18.850Z,100233.23
2018-04-08T08:37:45.205Z,100228.70
2018-04-08T08:40:11.554Z,100227.52
2018-04-08T08:42:37.962Z,100235.00
2018-04-08T08:45:04.341Z,100234.25
2018-04-08T08:47:30.741Z,100235.48
2018-04-08T08:49:57.109Z,100227.34
2018-04-08T08:52:23.565Z,100232.20
2018-04-08T08:54:49.956Z,100236.09
2018-04-08T08:57:16.306Z,100229.73
2018-04-08T08:59:42.689Z,100223.48
2018-04-08T09:02:09.073Z,100227.59
2018-04-08T09:04:35.501Z,100231.56
2018-04-08T09:07:01.897Z,100233.13
2018-04-08T09:09:28.253Z,100227.33
2018-04-08T09:11:54.625Z,100230.52
2018-04-08T09:14:20.994Z,100227.17
2018-04-08T09:16:47.389Z,100218.77
2018-04-08T09:19:18.815Z,100216.19
2018-04-08T09:35:03.672Z,100211.29
2018-04-08T09:37:30.046Z,100203.70
2018-04-08T09:39:56.385Z,100209.64
2018-04-08T09:42:22.772Z,100205.66
2018-04-08T09:44:49.302Z,100189.16
2018-04-08T09:47:15.871Z,100190.31
2018-04-08T09:49:42.396Z,100187.65
2018-04-08T09:52:08.745Z,100187.02
2018-04-08T09:54:35.344Z,100188.65
2018-04-08T09:57:01.779Z,100192.66
2018-04-08T09:59:28.181Z,100192.27
2018-04-08T10:15:13.102Z,100177.58
2018-04-08T10:17:39.463Z,100177.91
2018-04-08T10:20:06.278Z,100177.26
2018-04-08T10:22:32.799Z,100168.37
2018-04-08T10:24:59.213Z,100167.71
2018-04-08T10:27:25.777Z,100168.39
2018-04-08T10:29:52.377Z,100169.48
2018-04-08T10:32:18.744Z,100163.89
2018-04-08T10:34:45.102Z,100165.59
2018-04-08T10:37:11.455Z,100163.50
2018-04-08T10:39:37.817Z,100166.42
2018-04-08T10:42:04.226Z,100173.55
2018-04-08T10:44:30.653Z,100148.75
2018-04-08T10:46:57.057Z,100153.67
2018-04-08T10:49:23.415Z,100153.45
2018-04-08T10:51:49.881Z,100145.36
2018-04-08T10:54:16.240Z,100143.06
2018-04-08T10:56:42.665Z,100148.92
2018-04-08T10:59:09.010Z,100139.00
2018-04-08T11:01:35.373Z,100139.37
2018-04-08T11:04:01.733Z,100131.84
2018-04-08T11:06:28.105Z,100124.13
2018-04-08T11:08:54.494Z,100118.75
2018-04-08T11:11:20.862Z,100116.39
2018-04-08T11:13:47.216Z,100115.69
2018-04-08T11:16:13.638Z,100111.20
2018-04-08T11:18:40.005Z,100104.09
2018-04-08T11:21:06.357Z,100109.66
2018-04-08T11:23:32.721Z,100103.61
2018-04-08T11:25:59.137Z,100094.80
2018-04-08T11:28:25.514Z,100104.48
2018-04-08T11:30:51.883Z,100092.98
2018-04-08T11:33:18.237Z,100091.07
2018-04-08T11:35:44.690Z,100093.52
2018-04-08T11:38:11.552Z,100082.72
2018-04-08T11:40:37.929Z,100080.38
2018-04-08T11:43:04.379Z,100077.49
2018-04-08T11:45:30.782Z,100082.89
2018-04-08T11:47:57.143Z,100084.61
2018-04-08T11:50:23.565Z,100075.95
2018-04-08T11:52:49.975Z,100083.63
2018-04-08T11:55:16.341Z,100071.50
2018-04-08T11:57:42.714Z,100065.59
2018-04-08T12:00:09.125Z,100060.18
2018-04-08T12:02:35.513Z,100066.62
2018-04-08T12:05:01.878Z,100058.23
2018-04-08T12:07:28.381Z,100059.48
2018-04-08T12:09:54.961Z,100051.89
2018-04-08T12:12:21.478Z,100063.15
2018-04-08T12:14:47.845Z,100053.27
2018-04-08T12:17:14.237Z,100050.36
2018-04-08T12:19:40.657Z,100052.70
2018-04-08T12:22:07.061Z,100045.31
2018-04-08T12:24:33.501Z,100041.08
2018-04-08T12:27:00.910Z,100041.78
2018-04-08T12:29:27.341Z,100039.11
2018-04-08T12:31:53.764Z,100041.39
2018-04-08T12:34:20.151Z,100035.52
2018-04-08T12:36:46.754Z,100039.48
2018-04-08T12:39:13.148Z,100032.41
2018-04-08T12:41:39.506Z,100034.39
2018-04-08T12:44:05.874Z,100027.99
2018-04-08T12:46:32.249Z,100020.08
2018-04-08T12:48:58.799Z,100020.73
2018-04-08T12:51:25.170Z,100016.92
2018-04-08T12:53:51.581Z,100016.44
2018-04-08T12:56:18.010Z,100014.82
2018-04-08T12:58:44.396Z,100013.59
2018-04-08T13:01:10.775Z,100010.66
2018-04-08T13:03:37.144Z,99997.05
2018-04-08T13:06:03.554Z,99998.66
2018-04-08T13:08:29.953Z,99996.89
2018-04-08T13:10:56.301Z,99996.34
2018-04-08T13:13:22.702Z,99988.86
2018-04-08T13:15:49.109Z,99991.42
2018-04-08T13:18:15.514Z,99991.20
2018-04-08T13:20:41.954Z,99994.22
2018-04-08T13:23:08.330Z,99987.88
2018-04-08T13:25:34.721Z,99985.89
2018-04-08T13:28:01.081Z,99993.45
2018-04-08T13:30:27.448Z,99990.72
2018-04-08T13:32:53.884Z,99985.21
2018-04-08T13:35:20.234Z,99984.94
2018-04-08T13:37:46.852Z,99984.50
2018-04-08T13:40:13.262Z,99984.41
2018-04-08T13:42:39.637Z,99982.26
2018-04-08T13:45:05.985Z,99982.80
2018-04-08T13:47:32.426Z,99981.04
2018-04-08T13:49:58.813Z,99979.58
2018-04-08T13:52:25.990Z,99981.73
2018-04-08T13:54:52.409Z,99981.89
2018-04-08T13:57:18.780Z,99968.64
2018-04-08T13:59:45.163Z,99967.20
2018-04-08T14:02:11.565Z,99974.47
2018-04-08T14:04:37.901Z,99967.08
2018-04-08T14:07:04.269Z,99966.66
2018-04-08T14:09:30.646Z,99964.73
2018-04-08T14:11:57.008Z,99969.55
2018-04-08T14:14:23.380Z,99968.53
2018-04-08T14:16:49.749Z,99970.11
2018-04-08T14:19:16.116Z,99960.23
2018-04-08T14:21:42.470Z,99964.25
2018-04-08T14:24:08.858Z,99963.81
2018-04-08T14:26:35.228Z,99965.09
2018-04-08T14:29:01.600Z,99962.64
2018-04-08T14:31:27.976Z,99965.66
2018-04-08T14:33:54.365Z,99962.77
2018-04-08T14:36:20.788Z,99959.53
2018-04-08T14:38:47.155Z,99963.19
2018-04-08T14:41:13.526Z,99960.66
2018-04-08T14:43:39.912Z,99965.16
2018-04-08T14:46:06.315Z,99964.03
2018-04-08T14:48:32.742Z,99962.97
2018-04-08T14:50:59.193Z,99968.26
2018-04-08T14:53:25.590Z,99962.15
2018-04-08T14:55:51.990Z,99963.34
2018-04-08T14:58:18.406Z,99965.88
2018-04-08T15:00:44.870Z,99960.31
2018-04-08T15:03:11.275Z,99965.75
2018-04-08T15:05:37.702Z,99956.59
2018-04-08T15:08:04.125Z,99961.31
2018-04-08T15:10:30.583Z,99962.49
2018-04-08T15:12:56.984Z,99975.89
2018-04-08T15:15:23.413Z,99971.17
2018-04-08T15:17:49.969Z,99967.65
2018-04-08T15:20:16.384Z,99967.86
2018-04-08T15:22:42.819Z,99969.30
2018-04-08T15:25:09.307Z,99972.25
2018-04-08T15:27:35.703Z,99977.59
2018-04-08T15:30:02.134Z,99971.45
2018-04-08T15:32:28.566Z,99983.87
2018-04-08T15:34:54.938Z,99979.48
2018-04-08T15:37:21.290Z,99977.55
2018-04-08T15:39:47.679Z,99982.20
2018-04-08T15:42:14.082Z,99984.13
2018-04-08T15:44:40.478Z,99977.81
2018-04-08T15:47:06.879Z,99977.59
2018-04-08T15:49:33.241Z,99983.43
2018-04-08T15:51:59.664Z,99978.67
2018-04-08T15:54:26.098Z,99971.28
2018-04-08T15:56:52.466Z,99975.25
2018-04-08T15:59:18.862Z,99974.76
2018-04-08T16:01:45.302Z,99984.72
2018-04-08T16:04:11.650Z,99989.97
2018-04-08T16:06:38.017Z,99989.59
2018-04-08T16:09:05.258Z,99985.57
2018-04-08T16:11:31.622Z,99984.64
2018-04-08T16:13:57.965Z,99989.77
2018-04-08T16:16:24.513Z,99991.28
2018-04-08T16:18:50.873Z,99992.40
2018-04-08T16:21:17.249Z,99988.02
2018-04-08T16:23:43.609Z,100002.59
2018-04-08T16:26:09.981Z,99992.45
2018-04-08T16:28:36.381Z,99996.88
2018-04-08T16:31:02.788Z,99991.31
2018-04-08T16:33:29.151Z,99985.89
2018-04-08T16:35:55.574Z,99996.96
2018-04-08T16:38:21.938Z,99994.09
2018-04-08T16:40:48.285Z,99985.26
2018-04-08T16:43:14.704Z,99990.66
2018-04-08T16:45:41.085Z,99988.27
2018-04-08T16:48:07.492Z,99996.75
2018-04-08T16:50:33.906Z,100002.78
2018-04-08T16:53:00.298Z,99998.03
2018-04-08T16:55:26.706Z,100001.16
2018-04-08T16:57:53.083Z,100002.19
2018-04-08T17:00:19.597Z,100006.22
2018-04-08T17:02:46.061Z,100011.62
2018-04-08T17:05:12.503Z,100017.05
2018-04-08T17:07:38.874Z,100026.45
2018-04-08T17:10:05.301Z,100018.45
2018-04-08T17:12:31.668Z,100025.52
2018-04-08T17:14:58.045Z,100027.11
2018-04-08T17:17:24.465Z,100033.98
2018-04-08T17:19:50.854Z,100037.05
2018-04-08T17:22:17.209Z,100037.00
2018-04-08T17:24:43.642Z,100038.83
2018-04-08T17:27:10.078Z,100050.70
2018-04-08T17:29:36.485Z,100057.16
2018-04-08T17:32:03.057Z,100065.44
2018-04-08T17:34:29.470Z,100079.59
2018-04-08T17:36:55.878Z,100079.34
2018-04-08T17:39:22.246Z,100085.63
2018-04-08T17:41:48.658Z,100085.28
2018-04-08T17:44:15.070Z,100087.28
2018-04-08T17:46:41.479Z,100077.84
2018-04-08T17:49:07.933Z,100077.41
2018-04-08T17:51:34.355Z,100085.27
2018-04-08T17:54:00.749Z,100092.92
2018-04-08T17:56:27.119Z,100099.46
2018-04-08T17:58:53.499Z,100092.55
2018-04-08T18:01:19.897Z,100105.47
2018-04-08T18:03:46.273Z,100105.84
2018-04-08T18:06:12.646Z,100108.93
2018-04-08T18:08:39.001Z,100114.64
2018-04-08T18:11:05.366Z,100114.39
2018-04-08T18:13:31.741Z,100121.91
2018-04-08T18:15:58.126Z,100120.47
2018-04-08T18:18:24.490Z,100116.76
2018-04-08T18:20:50.875Z,100125.53
2018-04-08T18:23:17.213Z,100126.16
2018-04-08T18:25:43.582Z,100130.68
2018-04-08T18:28:09.953Z,100133.91
2018-04-08T18:30:36.304Z,100134.02
2018-04-08T18:33:02.653Z,100134.88
2018-04-08T18:35:29.041Z,100129.55
2018-04-08T18:37:55.433Z,100130.11
2018-04-08T18:40:21.853Z,100135.13
2018-04-08T18:42:48.242Z,100136.99
2018-04-08T18:45:14.650Z,100141.34
2018-04-08T18:47:41.008Z,100137.09
2018-04-08T18:50:07.366Z,100145.52
2018-04-08T18:52:33.749Z,100146.78
2018-04-08T18:55:00.181Z,100151.28
2018-04-08T18:57:26.557Z,100151.72
2018-04-08T18:59:52.917Z,100151.98
2018-04-08T19:02:19.309Z,100150.48
2018-04-08T19:04:45.666Z,100157.36
2018-04-08T19:07:12.066Z,100155.34
2018-04-08T19:09:38.425Z,100156.98
2018-04-08T19:12:04.798Z,100162.06
2018-04-08T19:14:37.424Z,100155.37
2018-04-08T19:17:03.845Z,100155.97
2018-04-08T19:19:30.222Z,100156.66
2018-04-08T19:21:56.601Z,100157.01
2018-04-08T19:24:23.016Z,100160.48
2018-04-08T19:26:49.410Z,100153.06
2018-04-08T19:29:15.784Z,100156.45
2018-04-08T19:31:42.166Z,100163.33
2018-04-08T19:34:08.542Z,100159.03
2018-04-08T19:36:34.894Z,100156.31
2018-04-08T19:39:01.265Z,100157.22
2018-04-08T19:41:27.634Z,100163.50
2018-04-08T19:43:53.998Z,100158.61
2018-04-08T19:46:20.354Z,100163.88
2018-04-08T19:48:46.729Z,100161.25
2018-04-08T19:51:13.086Z,100166.19
2018-04-08T19:53:39.453Z,100165.80
2018-04-08T19:56:05.806Z,100163.01
2018-04-08T19:58:32.322Z,100172.62
2018-04-08T20:00:58.778Z,100174.81
2018-04-08T20:03:25.134Z,100170.09
2018-04-08T20:05:51.517Z,100164.17
2018-04-08T20:08:17.903Z,100155.10
2018-04-08T20:10:44.485Z,100160.52
2018-04-08T20:13:10.894Z,100159.31
2018-04-08T20:15:37.250Z,100162.27
2018-04-08T20:18:03.734Z,100163.30
2018-04-08T20:23:47.058Z,100162.56
2018-04-08T20:26:13.409Z,100164.08
2018-04-08T20:28:39.993Z,100157.50
2018-04-08T20:31:06.371Z,100157.50
2018-04-08T20:33:32.756Z,100155.20
2018-04-08T20:35:59.121Z,100156.20
2018-04-08T20:38:25.484Z,100157.50
2018-04-08T20:40:51.877Z,100163.89
2018-04-08T20:43:18.237Z,100160.73
2018-04-08T20:45:44.601Z,100153.55
2018-04-08T20:48:10.948Z,100151.84
2018-04-08T20:50:37.306Z,100149.00
2018-04-08T20:53:03.711Z,100148.78
2018-04-08T20:55:30.073Z,100144.69
2018-04-08T20:57:56.430Z,100150.07
2018-04-08T21:00:22.789Z,100144.61
2018-04-08T21:02:49.153Z,100143.73
2018-04-08T21:05:15.505Z,100141.67
2018-04-08T21:07:41.863Z,100137.11
2018-04-08T21:10:08.229Z,100138.70
2018-04-08T21:12:34.606Z,100129.86
2018-04-08T21:15:01.096Z,100126.78
2018-04-08T21:17:27.553Z,100126.45
2018-04-08T21:19:53.940Z,100133.77
2018-04-08T21:22:20.317Z,100133.47
2018-04-08T21:24:46.714Z,100136.35
2018-04-08T21:27:13.117Z,100132.47
2018-04-08T21:29:39.520Z,100125.50
2018-04-08T21:32:05.880Z,100120.79
2018-04-08T21:34:32.294Z,100130.82
2018-04-08T21:36:58.694Z,100132.53
2018-04-08T21:39:25.045Z,100134.31
2018-04-08T21:41:51.414Z,100139.27
2018-04-08T21:44:17.826Z,100136.55
2018-04-08T21:46:44.210Z,100138.97
2018-04-08T21:49:10.593Z,100131.03
2018-04-08T21:51:36.989Z,100127.05
2018-04-08T21:54:03.406Z,100119.61
2018-04-08T21:56:29.813Z,100116.16
2018-04-08T21:58:56.190Z,100124.19
2018-04-08T22:01:22.525Z,100122.52
2018-04-08T22:03:48.906Z,100120.42
2018-04-08T22:06:15.270Z,100113.38
2018-04-08T22:08:41.633Z,100109.17
2018-04-08T22:11:07.981Z,100109.05
2018-04-08T22:13:34.353Z,100108.58
2018-04-08T22:16:00.756Z,100099.02
2018-04-08T22:18:27.130Z,100096.41
2018-04-08T22:20:53.550Z,100095.09
2018-04-08T22:23:19.925Z,100095.63
2018-04-08T22:25:46.295Z,100084.44
2018-04-08T22:28:12.647Z,100080.77
2018-04-08T22:30:39.039Z,100077.94
2018-04-08T22:33:05.510Z,100082.46
2018-04-08T22:35:32.178Z,100083.12
2018-04-08T22:37:58.722Z,100087.86
2018-04-08T22:40:25.271Z,100088.75
2018-04-08T22:42:51.626Z,100086.42
2018-04-08T22:45:18.184Z,100084.72
2018-04-08T22:47:44.525Z,100090.82
2018-04-08T22:50:10.919Z,100090.28
2018-04-08T22:52:37.393Z,100080.31
2018-04-08T22:55:03.791Z,100074.52
2018-04-08T22:57:30.178Z,100071.88
2018-04-08T22:59:56.538Z,100066.88
2018-04-08T23:02:22.949Z,100061.77
2018-04-08T23:04:49.299Z,100054.70
2018-04-08T23:07:15.657Z,100052.16
2018-04-08T23:09:42.059Z,100045.94
2018-04-08T23:12:08.445Z,100044.80
2018-04-08T23:14:34.789Z,100040.83
2018-04-08T23:17:01.157Z,100045.41
2018-04-08T23:19:27.524Z,100045.41
2018-04-08T23:21:53.914Z,100044.79
2018-04-08T23:24:20.252Z,100043.52
2018-04-08T23:26:46.649Z,100042.02
2018-04-08T23:29:12.993Z,100040.42
2018-04-08T23:31:39.341Z,100043.05
2018-04-08T23:34:05.710Z,100035.27
2018-04-08T23:36:32.082Z,100044.09
2018-04-08T23:38:58.487Z,100040.56
2018-04-08T23:41:24.905Z,100039.80
2018-04-08T23:43:51.313Z,100042.44
2018-04-08T23:46:17.672Z,100047.23
2018-04-08T23:48:44.077Z,100041.43
2018-04-08T23:51:10.470Z,100033.58
2018-04-08T23:53:36.838Z,100030.86
2018-04-08T23:56:03.276Z,100022.27
2018-04-08T23:58:29.658Z,100026.00
